Time;durP1;ratioP1;P1;durP2;ratioP2;P2;SDS_P1;SDS_P2;PMS_P1;PMS_P2;Temp;Humidity;BMP_temperature;BMP_pressure;BME280_temperature;BME280_humidity;BME280_pressure;Samples;Min_cycle;Max_cycle;Signal;HPM_P1;HPM_P2
2022/05/27 00:00:53;;;;;;;8.85;6.30;;;;;;;;;;6319521;28;20048;-74
2022/05/27 00:03:55;;;;;;;14.23;6.32;;;;;;;;;;6317775;28;20056;-74
2022/05/27 00:06:57;;;;;;;7.63;5.97;;;;;;;;;;6320420;27;20055;-74
2022/05/27 00:09:59;;;;;;;11.68;5.72;;;;;;;;;;6321803;28;20048;-75
2022/05/27 00:13:02;;;;;;;10.60;6.30;;;;;;;;;;6320470;28;20048;-75
2022/05/27 00:16:04;;;;;;;;;;;;;;;;;;6319881;28;20056;-73
2022/05/27 00:19:05;;;;;;;13.60;6.80;;;;;;;;;;6320051;28;19916;-73
2022/05/27 00:22:08;;;;;;;11.80;7.30;;;;;;;;;;6318445;27;20060;-73
2022/05/27 00:25:10;;;;;;;10.95;7.63;;;;;;;;;;6318970;28;20052;-73
2022/05/27 00:28:13;;;;;;;14.82;7.90;;;;;;;;;;6322705;27;20048;-73
2022/05/27 00:31:18;;;;;;;;;;;;;;;;;;6321648;28;20048;-73
2022/05/27 00:34:19;;;;;;;12.23;8.27;;;;;;;;;;6317389;27;19995;-73
2022/05/27 00:37:21;;;;;;;11.10;7.63;;;;;;;;;;6320043;28;20239;-74
2022/05/27 00:40:23;;;;;;;13.18;7.55;;;;;;;;;;6318156;27;20056;-74
2022/05/27 00:43:26;;;;;;;13.80;9.33;;;;;;;;;;6315748;28;20056;-74
2022/05/27 00:46:30;;;;;;;10.45;7.82;;;;;;;;;;6317796;28;20044;-73
2022/05/27 00:49:33;;;;;;;11.95;8.25;;;;;;;;;;6320014;28;20105;-74
2022/05/27 00:52:37;;;;;;;13.88;8.75;;;;;;;;;;6321273;28;20093;-74
2022/05/27 00:55:44;;;;;;;11.55;8.35;;;;;;;;;;6320247;28;20048;-74
2022/05/27 00:58:49;;;;;;;12.50;8.35;;;;;;;;;;6320335;27;20048;-74
2022/05/27 01:01:51;;;;;;;10.63;7.47;;;;;;;;;;6320156;28;20051;-74
2022/05/27 01:04:53;;;;;;;15.50;8.00;;;;;;;;;;6321417;27;20052;-74
2022/05/27 01:07:56;;;;;;;12.93;7.72;;;;;;;;;;6321633;28;20062;-74
2022/05/27 01:11:07;;;;;;;17.80;8.50;;;;;;;;;;6317583;28;20201;-74
2022/05/27 01:14:17;;;;;;;12.88;7.93;;;;;;;;;;6318082;28;20058;-74
2022/05/27 01:17:28;;;;;;;15.18;7.78;;;;;;;;;;6319929;28;20115;-76
2022/05/27 01:20:34;;;;;;;12.30;7.63;;;;;;;;;;6317938;28;20056;-73
2022/05/27 01:24:06;;;;;;;11.80;7.82;;;;;;;;;;6319414;28;20074;-74
2022/05/27 01:27:20;;;;;;;13.13;8.05;;;;;;;;;;6317913;28;20101;-74
2022/05/27 01:30:25;;;;;;;10.25;7.80;;;;;;;;;;6323025;28;20351;-74
2022/05/27 01:33:34;;;;;;;14.63;8.00;;;;;;;;;;6326725;28;20327;-73
2022/05/27 01:36:41;;;;;;;14.80;7.57;;;;;;;;;;6325487;27;20335;-74
2022/05/27 01:39:47;;;;;;;13.70;7.72;;;;;;;;;;6321521;27;20051;-73
2022/05/27 01:42:55;;;;;;;11.93;7.45;;;;;;;;;;6321432;27;20048;-74
2022/05/27 01:46:01;;;;;;;11.43;7.32;;;;;;;;;;6325020;28;20047;-73
2022/05/27 01:49:07;;;;;;;9.30;7.28;;;;;;;;;;6324251;27;20039;-74
2022/05/27 01:52:14;;;;;;;10.88;7.32;;;;;;;;;;6321091;27;20044;-73
2022/05/27 01:55:22;;;;;;;10.75;7.38;;;;;;;;;;6324064;28;20040;-74
2022/05/27 01:58:28;;;;;;;10.43;7.43;;;;;;;;;;6324076;27;20048;-74
2022/05/27 02:01:34;;;;;;;15.27;7.78;;;;;;;;;;6324024;28;20052;-74
2022/05/27 02:04:39;;;;;;;12.32;8.05;;;;;;;;;;6321231;27;20154;-73
2022/05/27 02:07:43;;;;;;;12.73;8.27;;;;;;;;;;6326257;28;20081;-73
2022/05/27 02:10:50;;;;;;;15.93;8.45;;;;;;;;;;6325806;28;20051;-74
2022/05/27 02:13:57;;;;;;;20.23;9.10;;;;;;;;;;6322145;28;20040;-73
2022/05/27 02:17:04;;;;;;;13.88;8.65;;;;;;;;;;6325372;28;20048;-72
2022/05/27 02:20:09;;;;;;;16.63;8.18;;;;;;;;;;6324563;28;20358;-72
2022/05/27 02:23:22;;;;;;;10.75;8.68;;;;;;;;;;6323083;28;20048;-72
2022/05/27 02:26:27;;;;;;;11.52;8.38;;;;;;;;;;6321828;28;20044;-72
2022/05/27 02:29:31;;;;;;;11.40;8.13;;;;;;;;;;6318482;28;20059;-72
2022/05/27 02:32:35;;;;;;;13.30;9.07;;;;;;;;;;6322234;28;20236;-72
2022/05/27 02:35:37;;;;;;;12.45;8.32;;;;;;;;;;6328215;28;20043;-71
2022/05/27 02:38:39;;;;;;;16.55;9.88;;;;;;;;;;6318589;28;20262;-71
2022/05/27 02:41:45;;;;;;;16.85;9.50;;;;;;;;;;6316029;28;20044;-71
2022/05/27 02:44:50;;;;;;;12.80;9.68;;;;;;;;;;6316823;28;20278;-72
2022/05/27 02:47:59;;;;;;;19.85;9.18;;;;;;;;;;6319098;28;20106;-72
2022/05/27 02:51:05;;;;;;;14.88;9.02;;;;;;;;;;6321894;28;20047;-74
2022/05/27 02:54:13;;;;;;;14.07;9.30;;;;;;;;;;6319205;28;20205;-71
2022/05/27 02:57:19;;;;;;;16.90;9.45;;;;;;;;;;6317029;28;20048;-72
2022/05/27 03:00:24;;;;;;;14.68;9.82;;;;;;;;;;6322185;28;20311;-72
2022/05/27 03:03:27;;;;;;;15.73;9.43;;;;;;;;;;6317482;28;20247;-71
2022/05/27 03:06:42;;;;;;;13.68;9.73;;;;;;;;;;6319200;28;20063;-73
2022/05/27 03:09:50;;;;;;;11.73;9.18;;;;;;;;;;6321517;28;20051;-73
2022/05/27 03:13:02;;;;;;;16.48;9.48;;;;;;;;;;6319895;28;20044;-73
2022/05/27 03:16:11;;;;;;;15.88;11.10;;;;;;;;;;6314606;28;20044;-74
2022/05/27 03:19:23;;;;;;;14.90;9.40;;;;;;;;;;6315041;28;20269;-73
2022/05/27 03:22:34;;;;;;;16.63;9.48;;;;;;;;;;6317281;28;20102;-73
2022/05/27 03:25:42;;;;;;;13.02;9.38;;;;;;;;;;6324839;28;20093;-73
2022/05/27 03:28:49;;;;;;;18.17;9.75;;;;;;;;;;6319082;28;20044;-73
2022/05/27 03:31:56;;;;;;;20.05;9.27;;;;;;;;;;6300058;28;20378;-72
2022/05/27 03:35:03;;;;;;;13.73;9.50;;;;;;;;;;6307993;28;20123;-73
2022/05/27 03:38:08;;;;;;;12.48;9.30;;;;;;;;;;6318358;28;20063;-73
2022/05/27 03:41:14;;;;;;;13.40;9.35;;;;;;;;;;6320381;28;20541;-73
2022/05/27 03:44:17;;;;;;;15.75;9.75;;;;;;;;;;6318427;28;20060;-73
2022/05/27 03:47:18;;;;;;;17.35;9.43;;;;;;;;;;6323239;28;20081;-73
2022/05/27 03:50:25;;;;;;;15.88;10.02;;;;;;;;;;6317726;28;20056;-73
2022/05/27 03:54:03;;;;;;;13.52;9.52;;;;;;;;;;6316867;28;20051;-73
2022/05/27 03:56:49;;;;;;;13.90;9.85;;;;;;;;;;6318241;28;20050;-73
2022/05/27 03:59:51;;;;;;;14.13;10.35;;;;;;;;;;6315046;28;20154;-72
2022/05/27 04:02:52;;;;;;;15.93;11.55;;;;;;;;;;6320755;28;20062;-73
2022/05/27 04:05:56;;;;;;;16.95;10.82;;;;;;;;;;6314751;28;20107;-72
2022/05/27 04:08:58;;;;;;;18.40;12.57;;;;;;;;;;6319964;28;20043;-73
2022/05/27 04:11:59;;;;;;;22.42;12.50;;;;;;;;;;6316958;28;20056;-73
2022/05/27 04:15:01;;;;;;;20.08;12.60;;;;;;;;;;6316016;28;20044;-73
2022/05/27 04:18:03;;;;;;;20.70;12.35;;;;;;;;;;6319534;28;20054;-73
2022/05/27 04:21:06;;;;;;;18.65;11.57;;;;;;;;;;6312107;28;20077;-73
2022/05/27 04:24:08;;;;;;;;;;;;;;;;;;6315625;28;20063;-73
2022/05/27 04:27:11;;;;;;;24.73;12.50;;;;;;;;;;6317728;28;19916;-73
2022/05/27 04:30:14;;;;;;;19.92;12.23;;;;;;;;;;6318096;28;20106;-73
2022/05/27 04:33:16;;;;;;;22.42;13.48;;;;;;;;;;6319546;28;20043;-73
2022/05/27 04:36:19;;;;;;;19.85;13.15;;;;;;;;;;6316758;28;20097;-73
2022/05/27 04:39:20;;;;;;;17.38;12.60;;;;;;;;;;6315270;28;20090;-73
2022/05/27 04:42:22;;;;;;;24.17;12.85;;;;;;;;;;6314243;28;20040;-73
2022/05/27 04:45:24;;;;;;;56.40;15.05;;;;;;;;;;6316447;28;20110;-76
2022/05/27 04:48:25;;;;;;;29.58;13.48;;;;;;;;;;6317442;28;20052;-75
2022/05/27 04:51:28;;;;;;;18.15;12.32;;;;;;;;;;6316631;28;20044;-73
2022/05/27 04:54:30;;;;;;;16.35;12.20;;;;;;;;;;6313984;28;20349;-73
2022/05/27 04:57:34;;;;;;;19.83;11.23;;;;;;;;;;6316913;28;20063;-74
2022/05/27 05:00:38;;;;;;;16.13;11.77;;;;;;;;;;6314016;28;20048;-73
2022/05/27 05:03:39;;;;;;;;;;;;;;;;;;6316595;28;20060;-73
2022/05/27 05:06:42;;;;;;;18.25;12.32;;;;;;;;;;6320790;28;19924;-73
2022/05/27 05:09:44;;;;;;;;;;;;;;;;;;6317839;28;20094;-73
2022/05/27 05:12:46;;;;;;;20.83;13.35;;;;;;;;;;6315783;28;19956;-74
2022/05/27 05:15:47;;;;;;;17.83;13.57;;;;;;;;;;6313916;28;20109;-74
2022/05/27 05:18:50;;;;;;;20.30;14.10;;;;;;;;;;6314139;28;20044;-74
2022/05/27 05:21:53;;;;;;;25.90;14.15;;;;;;;;;;6319809;28;20063;-74
2022/05/27 05:24:55;;;;;;;23.23;13.77;;;;;;;;;;6315335;28;20111;-74
2022/05/27 05:27:57;;;;;;;24.30;13.55;;;;;;;;;;6313557;28;20359;-74
2022/05/27 05:30:58;;;;;;;18.05;14.13;;;;;;;;;;6314993;28;20098;-73
2022/05/27 05:34:01;;;;;;;23.98;14.30;;;;;;;;;;6318228;28;20109;-74
2022/05/27 05:37:04;;;;;;;26.20;13.37;;;;;;;;;;6315783;28;20052;-74
2022/05/27 05:40:08;;;;;;;20.67;13.15;;;;;;;;;;6318400;28;20458;-74
2022/05/27 05:43:10;;;;;;;20.17;12.38;;;;;;;;;;6316550;28;20056;-74
2022/05/27 05:46:12;;;;;;;25.13;13.75;;;;;;;;;;6316441;28;20240;-74
2022/05/27 05:49:13;;;;;;;21.77;14.27;;;;;;;;;;6312166;28;20055;-74
2022/05/27 05:52:16;;;;;;;23.30;12.80;;;;;;;;;;6310395;28;20205;-74
2022/05/27 05:55:19;;;;;;;19.25;14.80;;;;;;;;;;6311790;28;20052;-74
2022/05/27 05:58:21;;;;;;;17.03;12.80;;;;;;;;;;6316888;27;20314;-74
2022/05/27 06:01:22;;;;;;;22.90;12.52;;;;;;;;;;6322247;28;20048;-75
2022/05/27 06:04:24;;;;;;;22.05;13.02;;;;;;;;;;6318780;28;20228;-75
2022/05/27 06:07:30;;;;;;;18.77;13.70;;;;;;;;;;6317670;27;20055;-75
2022/05/27 06:10:31;;;;;;;21.20;12.15;;;;;;;;;;6318326;27;20052;-75
2022/05/27 06:13:33;;;;;;;17.60;13.73;;;;;;;;;;6318168;28;20052;-75
2022/05/27 06:16:34;;;;;;;18.30;13.40;;;;;;;;;;6325723;28;20051;-75
2022/05/27 06:19:36;;;;;;;18.27;14.13;;;;;;;;;;6324417;28;20053;-75
2022/05/27 06:22:39;;;;;;;18.45;13.75;;;;;;;;;;6324914;28;20051;-75
2022/05/27 06:25:41;;;;;;;24.60;14.00;;;;;;;;;;6321680;28;20060;-75
2022/05/27 06:35:21;;;;;;;22.13;15.82;;;;;;;;;;6318654;28;20049;-75
2022/05/27 06:38:24;;;;;;;20.58;14.73;;;;;;;;;;6324350;28;20155;-74
2022/05/27 06:41:26;;;;;;;18.17;15.35;;;;;;;;;;6327276;28;20277;-75
2022/05/27 06:44:28;;;;;;;25.95;14.88;;;;;;;;;;6321941;28;20047;-75
2022/05/27 06:47:29;;;;;;;20.65;14.30;;;;;;;;;;6324456;28;20060;-75
2022/05/27 06:50:33;;;;;;;22.63;14.18;;;;;;;;;;6320781;28;20059;-75
2022/05/27 06:53:36;;;;;;;32.53;15.90;;;;;;;;;;6324178;28;20179;-75
2022/05/27 06:56:38;;;;;;;22.23;14.40;;;;;;;;;;6321077;28;20240;-74
2022/05/27 06:59:40;;;;;;;18.05;13.30;;;;;;;;;;6324012;28;20062;-75
2022/05/27 07:02:42;;;;;;;20.70;13.68;;;;;;;;;;6321483;28;20274;-74
2022/05/27 07:05:43;;;;;;;21.65;14.32;;;;;;;;;;6322516;28;20060;-74
2022/05/27 07:08:46;;;;;;;25.58;14.13;;;;;;;;;;6318674;28;20224;-75
2022/05/27 07:11:51;;;;;;;26.05;16.02;;;;;;;;;;6322170;28;20056;-74
2022/05/27 07:14:53;;;;;;;19.05;13.95;;;;;;;;;;6322369;27;20327;-75
2022/05/27 07:17:54;;;;;;;21.77;13.60;;;;;;;;;;6323686;27;20052;-74
2022/05/27 07:21:00;;;;;;;18.05;12.73;;;;;;;;;;6318708;28;20086;-74
2022/05/27 07:24:03;;;;;;;26.02;14.70;;;;;;;;;;6323503;28;20112;-75
2022/05/27 07:27:05;;;;;;;18.75;12.55;;;;;;;;;;6321060;28;20094;-74
2022/05/27 07:30:08;;;;;;;18.73;13.82;;;;;;;;;;6320531;27;20048;-75
2022/05/27 07:33:10;;;;;;;18.88;13.68;;;;;;;;;;6323129;27;20285;-75
2022/05/27 07:36:11;;;;;;;20.80;13.90;;;;;;;;;;6322840;28;20060;-73
2022/05/27 07:39:14;;;;;;;23.05;16.40;;;;;;;;;;6319706;27;20064;-74
2022/05/27 07:42:16;;;;;;;;;;;;;;;;;;6318956;28;20123;-73
2022/05/27 07:45:21;;;;;;;22.52;15.45;;;;;;;;;;6321911;28;19916;-73
2022/05/27 07:48:23;;;;;;;21.55;15.55;;;;;;;;;;6322272;28;20103;-74
2022/05/27 07:51:25;;;;;;;30.07;15.80;;;;;;;;;;6319829;27;20058;-73
2022/05/27 07:54:28;;;;;;;22.40;14.75;;;;;;;;;;6322699;28;20048;-73
2022/05/27 07:57:30;;;;;;;21.92;16.00;;;;;;;;;;6320094;28;20052;-74
2022/05/27 08:00:34;;;;;;;28.70;16.63;;;;;;;;;;6319724;27;20799;-74
2022/05/27 08:03:36;;;;;;;27.80;16.33;;;;;;;;;;6316012;28;20051;-74
2022/05/27 08:06:37;;;;;;;22.40;14.03;;;;;;;;;;6320366;28;20208;-74
2022/05/27 08:09:40;;;;;;;20.42;13.77;;;;;;;;;;6315730;27;20493;-74
2022/05/27 08:12:42;;;;;;;22.15;15.43;;;;;;;;;;6314786;27;20063;-74
2022/05/27 08:15:44;;;;;;;19.83;12.77;;;;;;;;;;6290529;28;20086;-74
2022/05/27 08:18:46;;;;;;;21.27;14.00;;;;;;;;;;6295571;28;20089;-74
2022/05/27 08:21:48;;;;;;;25.15;16.13;;;;;;;;;;6318297;28;20107;-74
2022/05/27 08:24:51;;;;;;;21.27;14.30;;;;;;;;;;6318109;28;20060;-74
2022/05/27 08:27:54;;;;;;;20.88;14.50;;;;;;;;;;6320296;28;20074;-74
2022/05/27 08:30:58;;;;;;;22.52;14.10;;;;;;;;;;6318092;28;20108;-74
2022/05/27 08:41:06;;;;;;;19.45;12.68;;;;;;;;;;6241801;28;20041;-74
2022/05/27 08:44:19;;;;;;;29.15;14.32;;;;;;;;;;6243925;28;20049;-74
2022/05/27 08:47:24;;;;;;;;;;;;;;;;;;6242277;28;20059;-74
2022/05/27 08:50:29;;;;;;;22.20;12.90;;;;;;;;;;6238462;28;20729;-74
2022/05/27 08:53:34;;;;;;;24.38;13.35;;;;;;;;;;6248144;28;20111;-74
2022/05/27 09:00:01;;;;;;;17.58;12.95;;;;;;;;;;6245111;28;20045;-73
2022/05/27 09:03:07;;;;;;;18.80;11.25;;;;;;;;;;6244909;28;20107;-74
2022/05/27 09:06:10;;;;;;;17.65;12.05;;;;;;;;;;6243525;28;20065;-74
2022/05/27 09:09:18;;;;;;;18.63;10.98;;;;;;;;;;6242488;28;20053;-74
2022/05/27 09:12:36;;;;;;;22.25;13.60;;;;;;;;;;6244394;28;20069;-74
2022/05/27 09:15:45;;;;;;;22.15;13.85;;;;;;;;;;6318214;28;20044;-74
2022/05/27 09:18:53;;;;;;;24.67;15.55;;;;;;;;;;6318850;28;20085;-74
2022/05/27 09:22:06;;;;;;;27.73;13.90;;;;;;;;;;6315165;28;20347;-73
2022/05/27 09:25:17;;;;;;;24.23;14.75;;;;;;;;;;6317406;28;20056;-74
2022/05/27 09:28:27;;;;;;;29.30;17.17;;;;;;;;;;6316407;28;20052;-74
2022/05/27 09:31:32;;;;;;;17.98;13.30;;;;;;;;;;6314645;28;20052;-74
2022/05/27 09:34:37;;;;;;;23.90;14.07;;;;;;;;;;6313106;28;20332;-74
2022/05/27 09:37:44;;;;;;;23.23;16.05;;;;;;;;;;6315777;28;20052;-74
2022/05/27 09:40:49;;;;;;;19.60;14.20;;;;;;;;;;6313912;28;20169;-70
2022/05/27 09:43:55;;;;;;;24.83;14.68;;;;;;;;;;6319097;27;20066;-70
2022/05/27 09:46:57;;;;;;;18.83;13.57;;;;;;;;;;6316963;28;20052;-71
2022/05/27 09:50:00;;;;;;;19.67;12.75;;;;;;;;;;6317861;28;20064;-72
2022/05/27 09:53:02;;;;;;;15.27;11.07;;;;;;;;;;6318859;28;20079;-71
2022/05/27 09:56:07;;;;;;;21.75;11.27;;;;;;;;;;6319833;28;21325;-72
2022/05/27 09:59:22;;;;;;;16.98;10.77;;;;;;;;;;6318969;28;20060;-72
2022/05/27 10:02:29;;;;;;;16.40;13.52;;;;;;;;;;6320494;28;20052;-72
2022/05/27 10:05:32;;;;;;;16.83;13.05;;;;;;;;;;6322714;28;20107;-72
2022/05/27 10:08:38;;;;;;;22.08;14.07;;;;;;;;;;6325355;27;20053;-72
2022/05/27 10:11:49;;;;;;;17.58;13.23;;;;;;;;;;6321576;28;20052;-73
2022/05/27 10:14:52;;;;;;;23.00;15.52;;;;;;;;;;6320919;27;20048;-70
2022/05/27 10:17:54;;;;;;;19.13;13.95;;;;;;;;;;6323986;28;20057;-69
2022/05/27 10:21:00;;;;;;;18.80;15.35;;;;;;;;;;6320518;28;20059;-70
2022/05/27 10:24:15;;;;;;;19.70;11.27;;;;;;;;;;6321706;28;20093;-70
2022/05/27 10:27:20;;;;;;;18.42;12.45;;;;;;;;;;6313532;28;20060;-71
2022/05/27 10:30:26;;;;;;;16.85;11.88;;;;;;;;;;6316419;28;20315;-71
2022/05/27 10:33:39;;;;;;;15.20;11.63;;;;;;;;;;6320696;28;20735;-70
2022/05/27 10:36:51;;;;;;;14.98;8.77;;;;;;;;;;6324040;28;20052;-71
2022/05/27 10:40:04;;;;;;;18.08;10.40;;;;;;;;;;6328221;28;20066;-71
2022/05/27 10:43:18;;;;;;;16.50;10.77;;;;;;;;;;6320976;28;20055;-71
2022/05/27 10:46:23;;;;;;;19.25;12.43;;;;;;;;;;6319848;28;20076;-70
2022/05/27 10:49:45;;;;;;;18.63;12.18;;;;;;;;;;6316688;28;20123;-71
2022/05/27 10:52:58;;;;;;;19.42;10.50;;;;;;;;;;6320555;28;20055;-73
2022/05/27 10:56:06;;;;;;;21.80;14.40;;;;;;;;;;6320323;27;20331;-71
2022/05/27 11:02:58;;;;;;;25.83;15.43;;;;;;;;;;6321927;28;20045;-72
2022/05/27 11:06:15;;;;;;;22.88;14.32;;;;;;;;;;6321613;28;20052;-71
2022/05/27 11:09:25;;;;;;;19.08;12.63;;;;;;;;;;6319745;28;20044;-71
2022/05/27 11:15:10;;;;;;;17.52;12.40;;;;;;;;;;6315354;28;20067;-70
2022/05/27 11:16:04;;;;;;;18.55;13.70;;;;;;;;;;6319002;28;20101;-72
2022/05/27 11:19:26;;;;;;;16.95;12.45;;;;;;;;;;6322252;28;20161;-72
2022/05/27 11:22:31;;;;;;;18.85;15.30;;;;;;;;;;6323617;28;20060;-71
2022/05/27 11:25:40;;;;;;;18.00;12.45;;;;;;;;;;6317466;28;20070;-71
2022/05/27 11:28:54;;;;;;;20.73;14.13;;;;;;;;;;6321989;28;20097;-72
2022/05/27 11:32:02;;;;;;;19.67;14.88;;;;;;;;;;6323219;28;20040;-71
2022/05/27 11:35:13;;;;;;;17.63;12.52;;;;;;;;;;6325195;28;20115;-73
2022/05/27 11:38:29;;;;;;;19.42;10.95;;;;;;;;;;6319634;28;20054;-74
2022/05/27 11:41:34;;;;;;;14.35;10.05;;;;;;;;;;6324252;28;20043;-74
2022/05/27 11:44:42;;;;;;;17.40;12.18;;;;;;;;;;6325379;28;20052;-74
2022/05/27 11:48:01;;;;;;;18.58;9.82;;;;;;;;;;6319370;28;20044;-74
2022/05/27 11:51:12;;;;;;;11.55;8.40;;;;;;;;;;6326286;28;20048;-73
2022/05/27 11:54:24;;;;;;;15.15;9.90;;;;;;;;;;6322539;28;20108;-71
2022/05/27 11:57:37;;;;;;;16.50;9.25;;;;;;;;;;6321596;28;20105;-72
2022/05/27 12:00:41;;;;;;;17.10;11.85;;;;;;;;;;6321866;28;20072;-71
2022/05/27 12:03:50;;;;;;;21.75;12.40;;;;;;;;;;6321723;28;20048;-71
2022/05/27 12:06:57;;;;;;;18.38;11.45;;;;;;;;;;6322665;28;20056;-75
2022/05/27 12:10:03;;;;;;;13.82;9.85;;;;;;;;;;6319514;28;20046;-74
2022/05/27 12:13:08;;;;;;;11.82;9.45;;;;;;;;;;6316666;28;20295;-73
2022/05/27 12:16:14;;;;;;;10.40;8.45;;;;;;;;;;6317959;28;20073;-73
2022/05/27 12:19:18;;;;;;;11.52;8.15;;;;;;;;;;6320138;28;20320;-72
2022/05/27 12:22:25;;;;;;;10.32;6.43;;;;;;;;;;6320995;28;20044;-73
2022/05/27 12:25:29;;;;;;;14.35;9.30;;;;;;;;;;6317159;28;20044;-72
2022/05/27 12:28:36;;;;;;;19.35;8.88;;;;;;;;;;6317257;28;20048;-72
2022/05/27 12:31:38;;;;;;;15.18;8.13;;;;;;;;;;6318717;28;20048;-73
2022/05/27 12:34:43;;;;;;;18.80;8.48;;;;;;;;;;6320960;28;20620;-70
2022/05/27 12:37:48;;;;;;;35.88;12.25;;;;;;;;;;6318996;28;20342;-71
2022/05/27 12:40:52;;;;;;;20.05;8.93;;;;;;;;;;6322054;28;20106;-71
2022/05/27 12:44:00;;;;;;;18.90;7.18;;;;;;;;;;6315455;28;20161;-71
2022/05/27 12:47:04;;;;;;;30.13;9.15;;;;;;;;;;6316488;28;20048;-72
2022/05/27 12:50:13;;;;;;;15.73;7.97;;;;;;;;;;6319412;28;20103;-70
2022/05/27 12:53:18;;;;;;;13.32;8.35;;;;;;;;;;6319989;28;20060;-75
2022/05/27 13:03:49;;;;;;;11.40;6.13;;;;;;;;;;6310869;28;20111;-72
2022/05/27 13:07:04;;;;;;;19.05;7.30;;;;;;;;;;6306705;28;20131;-73
2022/05/27 13:10:35;;;;;;;15.93;6.70;;;;;;;;;;6319665;28;20048;-72
2022/05/27 13:13:37;;;;;;;10.67;7.00;;;;;;;;;;6320205;28;20043;-72
2022/05/27 13:16:42;;;;;;;13.35;6.78;;;;;;;;;;6320778;28;20044;-72
2022/05/27 13:19:46;;;;;;;9.32;7.10;;;;;;;;;;6314403;28;20067;-73
2022/05/27 13:22:57;;;;;;;14.25;6.97;;;;;;;;;;6313713;28;20044;-70
2022/05/27 13:26:06;;;;;;;16.33;6.97;;;;;;;;;;6321146;28;20051;-74
2022/05/27 13:29:25;;;;;;;12.77;7.82;;;;;;;;;;6317765;28;20092;-73
2022/05/27 13:32:29;;;;;;;12.07;7.90;;;;;;;;;;6318491;28;21037;-72
2022/05/27 13:35:37;;;;;;;12.55;7.80;;;;;;;;;;6303466;28;20063;-72
2022/05/27 13:38:43;;;;;;;10.63;6.78;;;;;;;;;;6324358;28;20111;-72
2022/05/27 13:41:48;;;;;;;9.77;7.05;;;;;;;;;;6319940;28;20278;-72
2022/05/27 13:44:50;;;;;;;14.10;7.72;;;;;;;;;;6324880;28;20289;-71
2022/05/27 13:47:56;;;;;;;10.02;7.65;;;;;;;;;;6323458;28;20057;-71
2022/05/27 13:51:07;;;;;;;14.40;7.28;;;;;;;;;;6320145;28;20054;-71
2022/05/27 13:54:14;;;;;;;11.10;7.93;;;;;;;;;;6322865;28;20066;-71
2022/05/27 13:57:27;;;;;;;12.02;8.13;;;;;;;;;;6320371;28;20168;-73
2022/05/27 14:00:33;;;;;;;9.98;7.07;;;;;;;;;;6315612;28;20331;-71
2022/05/27 14:03:40;;;;;;;11.50;7.05;;;;;;;;;;6319724;28;20109;-72
2022/05/27 14:06:42;;;;;;;9.85;7.10;;;;;;;;;;6318468;28;20074;-71
2022/05/27 14:09:45;;;;;;;13.98;7.35;;;;;;;;;;6322059;28;20103;-72
2022/05/27 14:12:49;;;;;;;11.30;6.85;;;;;;;;;;6325060;28;20052;-71
2022/05/27 14:15:50;;;;;;;15.15;7.20;;;;;;;;;;6317913;28;20319;-72
2022/05/27 14:18:52;;;;;;;;;;;;;;;;;;6315120;28;20102;-69
2022/05/27 14:25:33;;;;;;;12.25;5.70;;;;;;;;;;6319264;28;20044;-70
2022/05/27 14:28:39;;;;;;;15.98;6.35;;;;;;;;;;6314756;28;20049;-70
2022/05/27 14:31:43;;;;;;;11.02;6.47;;;;;;;;;;6313586;28;20062;-71
2022/05/27 14:34:46;;;;;;;14.25;6.13;;;;;;;;;;6316046;28;20044;-72
2022/05/27 14:37:54;;;;;;;10.60;5.90;;;;;;;;;;6317985;28;20056;-71
2022/05/27 14:40:57;;;;;;;13.80;6.35;;;;;;;;;;6320000;28;20051;-70
2022/05/27 14:44:02;;;;;;;10.13;6.75;;;;;;;;;;6320242;28;20055;-73
2022/05/27 14:47:07;;;;;;;10.32;5.75;;;;;;;;;;6317463;28;20348;-70
2022/05/27 14:50:18;;;;;;;8.93;5.85;;;;;;;;;;6318976;28;20105;-70
2022/05/27 14:53:20;;;;;;;18.50;6.87;;;;;;;;;;6320972;28;20119;-72
2022/05/27 14:56:24;;;;;;;16.27;6.10;;;;;;;;;;6320522;28;20529;-69
2022/05/27 14:59:35;;;;;;;9.43;6.15;;;;;;;;;;6318909;28;20052;-70
2022/05/27 15:02:49;;;;;;;20.83;5.82;;;;;;;;;;6317051;28;20271;-71
2022/05/27 15:05:51;;;;;;;13.10;5.93;;;;;;;;;;6319528;27;20052;-70
2022/05/27 15:09:08;;;;;;;11.95;5.60;;;;;;;;;;6319700;28;20062;-70
2022/05/27 15:12:23;;;;;;;11.75;5.68;;;;;;;;;;6317488;28;20279;-72
2022/05/27 15:15:41;;;;;;;11.32;5.80;;;;;;;;;;6319749;28;20045;-72
2022/05/27 15:18:45;;;;;;;15.23;5.63;;;;;;;;;;6319462;28;20105;-71
2022/05/27 15:21:49;;;;;;;19.40;5.63;;;;;;;;;;6317388;27;20103;-71
2022/05/27 15:24:54;;;;;;;7.10;4.75;;;;;;;;;;6322769;28;20331;-71
2022/05/27 15:34:44;;;;;;;8.25;5.40;;;;;;;;;;6322105;28;20103;-71
2022/05/27 15:37:45;;;;;;;13.00;6.03;;;;;;;;;;6319502;28;20104;-71
2022/05/27 15:40:48;;;;;;;21.97;5.67;;;;;;;;;;6323396;28;20096;-71
2022/05/27 15:43:50;;;;;;;10.25;5.65;;;;;;;;;;6319031;27;20055;-71
2022/05/27 15:46:54;;;;;;;10.52;5.85;;;;;;;;;;6323522;28;20067;-70
2022/05/27 15:49:56;;;;;;;39.40;7.85;;;;;;;;;;6316649;28;20113;-72
2022/05/27 15:52:57;;;;;;;15.40;5.60;;;;;;;;;;6317898;27;20047;-70
2022/05/27 15:55:59;;;;;;;11.25;4.88;;;;;;;;;;6314995;27;20055;-70
2022/05/27 15:59:01;;;;;;;15.80;5.30;;;;;;;;;;6319674;27;20051;-70
2022/05/27 16:02:05;;;;;;;12.85;5.07;;;;;;;;;;6317574;28;20052;-70
2022/05/27 16:05:07;;;;;;;11.27;4.85;;;;;;;;;;6319606;28;20048;-71
2022/05/27 16:08:09;;;;;;;12.05;4.55;;;;;;;;;;6318786;28;20080;-70
2022/05/27 16:11:11;;;;;;;11.85;4.78;;;;;;;;;;6313916;28;20135;-71
2022/05/27 16:14:13;;;;;;;16.10;4.85;;;;;;;;;;6317341;27;20040;-70
2022/05/27 16:20:38;;;;;;;11.27;4.40;;;;;;;;;;6315331;28;20239;-70
2022/05/27 16:23:41;;;;;;;11.90;4.20;;;;;;;;;;6318947;28;20099;-69
2022/05/27 16:26:42;;;;;;;;;;;;;;;;;;6317624;28;20196;-69
2022/05/27 16:29:44;;;;;;;9.85;5.57;;;;;;;;;;6319018;28;20091;-70
2022/05/27 16:32:47;;;;;;;11.03;4.70;;;;;;;;;;6319977;28;20234;-72
2022/05/27 16:35:49;;;;;;;9.35;4.43;;;;;;;;;;6315167;28;20071;-70
2022/05/27 16:38:51;;;;;;;11.77;5.13;;;;;;;;;;6319353;28;20079;-71
2022/05/27 16:41:52;;;;;;;20.52;4.57;;;;;;;;;;6318793;28;20117;-70
2022/05/27 16:44:54;;;;;;;9.15;4.35;;;;;;;;;;6319172;28;20066;-72
2022/05/27 16:47:57;;;;;;;11.57;4.63;;;;;;;;;;6319530;28;20058;-72
2022/05/27 16:50:59;;;;;;;9.05;3.22;;;;;;;;;;6320876;28;20337;-73
2022/05/27 16:54:01;;;;;;;9.57;3.65;;;;;;;;;;6317487;28;20071;-73
2022/05/27 16:57:02;;;;;;;7.43;3.78;;;;;;;;;;6323493;28;20339;-75
2022/05/27 17:00:06;;;;;;;7.43;3.67;;;;;;;;;;6318048;28;20044;-74
2022/05/27 17:03:09;;;;;;;9.90;4.63;;;;;;;;;;6323091;28;20052;-75
2022/05/27 17:06:17;;;;;;;9.63;3.50;;;;;;;;;;6319110;28;20067;-73
2022/05/27 17:09:18;;;;;;;9.02;3.83;;;;;;;;;;6319373;28;20050;-75
2022/05/27 17:12:21;;;;;;;8.82;3.42;;;;;;;;;;6319137;28;20124;-74
2022/05/27 17:15:25;;;;;;;10.52;3.88;;;;;;;;;;6319365;27;20460;-72
2022/05/27 17:18:29;;;;;;;12.98;3.40;;;;;;;;;;6320557;28;20047;-74
2022/05/27 17:21:31;;;;;;;9.90;3.50;;;;;;;;;;6315866;28;20052;-74
2022/05/27 17:24:33;;;;;;;8.97;4.47;;;;;;;;;;6320382;28;20093;-74
2022/05/27 17:27:34;;;;;;;10.48;3.67;;;;;;;;;;6316654;28;20484;-74
2022/05/27 17:30:37;;;;;;;10.95;3.45;;;;;;;;;;6317329;28;20058;-73
2022/05/27 17:33:41;;;;;;;10.50;3.78;;;;;;;;;;6319619;28;20041;-71
2022/05/27 17:36:43;;;;;;;8.10;3.35;;;;;;;;;;6319435;28;20111;-73
2022/05/27 17:39:44;;;;;;;10.38;3.33;;;;;;;;;;6316100;28;20067;-74
2022/05/27 17:42:46;;;;;;;10.15;4.15;;;;;;;;;;6320505;28;20323;-73
2022/05/27 17:45:48;;;;;;;10.75;3.80;;;;;;;;;;6318876;27;20066;-73
2022/05/27 17:52:11;;;;;;;7.97;3.20;;;;;;;;;;6318321;28;20111;-72
2022/05/27 17:55:13;;;;;;;23.77;13.90;;;;;;;;;;6317114;28;20136;-72
2022/05/27 17:58:15;;;;;;;20.33;13.85;;;;;;;;;;6319237;28;20036;-74
2022/05/27 18:01:17;;;;;;;12.55;5.72;;;;;;;;;;6321414;28;20324;-74
2022/05/27 18:04:20;;;;;;;25.58;15.77;;;;;;;;;;6318692;28;20081;-71
2022/05/27 18:07:22;;;;;;;17.45;8.38;;;;;;;;;;6319482;28;20147;-74
2022/05/27 18:10:24;;;;;;;8.85;4.10;;;;;;;;;;6317707;28;20125;-74
2022/05/27 18:13:26;;;;;;;25.73;18.55;;;;;;;;;;6322064;27;20044;-73
2022/05/27 18:16:27;;;;;;;8.45;4.57;;;;;;;;;;6322672;27;20087;-74
2022/05/27 18:19:31;;;;;;;7.93;4.13;;;;;;;;;;6320463;27;20052;-74
2022/05/27 18:22:32;;;;;;;17.05;6.57;;;;;;;;;;6321622;28;20052;-74
2022/05/27 18:25:35;;;;;;;12.38;4.93;;;;;;;;;;6324524;27;20247;-74
2022/05/27 18:28:36;;;;;;;9.30;4.85;;;;;;;;;;6324573;28;20051;-74
2022/05/27 18:31:38;;;;;;;15.43;4.72;;;;;;;;;;6326449;28;20058;-73
2022/05/27 18:34:41;;;;;;;8.43;4.47;;;;;;;;;;6328613;28;20078;-74
2022/05/27 18:37:43;;;;;;;11.18;5.30;;;;;;;;;;6328722;28;20048;-72
2022/05/27 18:40:45;;;;;;;13.48;4.50;;;;;;;;;;6324757;28;20049;-74
2022/05/27 18:43:48;;;;;;;12.60;5.60;;;;;;;;;;6321526;27;20090;-74
2022/05/27 18:46:50;;;;;;;10.07;4.63;;;;;;;;;;6318366;28;20090;-72
2022/05/27 18:49:54;;;;;;;9.48;4.25;;;;;;;;;;6323455;28;20060;-72
2022/05/27 18:52:56;;;;;;;18.30;12.93;;;;;;;;;;6320648;27;20114;-72
2022/05/27 18:55:58;;;;;;;16.85;8.18;;;;;;;;;;6318604;28;20227;-71